Time;durP1;ratioP1;P1;durP2;ratioP2;P2;SDS_P1;SDS_P2;PMS_P1;PMS_P2;Temp;Humidity;BMP_temperature;BMP_pressure;BME280_temperature;BME280_humidity;BME280_pressure;Samples;Min_cycle;Max_cycle;Signal;HPM_P1;HPM_P2
2023/01/29 00:00:00;;;;;;;;;;;;;;;;;;1039295;28;19938;-79
2023/01/29 00:00:31;;;;;;;;;;;;;;;;;;1039307;28;20153;-79
2023/01/29 00:01:02;;;;;;;;;;;;;;;;;;1035479;28;19992;-79
2023/01/29 00:01:33;;;;;;;;;;;;;;;;;;1035502;28;19937;-79
2023/01/29 00:02:04;;;;;;;;;;;;;;;;;;1039438;28;19909;-79
2023/01/29 00:02:35;;;;;;;;;;;;;;;;;;1039961;28;19945;-79
2023/01/29 00:03:06;;;;;;;;;;;;;;;;;;1039427;28;19982;-79
2023/01/29 00:03:36;;;;;;;;;;;;;;;;;;1035296;28;19917;-79
2023/01/29 00:04:07;;;;;;;;;;;;;;;;;;1035552;28;19909;-79
2023/01/29 00:04:38;;;;;;;;;;;;;;;;;;1031546;28;19916;-79
2023/01/29 00:05:09;;;;;;;;;;;;;;;;;;1035466;28;20573;-79
2023/01/29 00:05:40;;;;;;;;;;;;;;;;;;1035393;28;20388;-78
2023/01/29 00:06:11;;;;;;;;;;;;;;;;;;1035525;28;19968;-79
2023/01/29 00:06:42;;;;;;;;;;;;;;;;;;1039567;28;19936;-79
2023/01/29 00:07:13;;;;;;;;;;;;;;;;;;1035380;28;19910;-79
2023/01/29 00:07:44;;;;;;;;;;;;;;;;;;1035418;28;19914;-79
2023/01/29 00:08:15;;;;;;;;;;;;;;;;;;1035642;28;20254;-79
2023/01/29 00:08:46;;;;;;;;;;;;;;;;;;1039576;28;19920;-79
2023/01/29 00:09:17;;;;;;;;;;;;;;;;;;1044044;28;20354;-78
2023/01/29 00:09:48;;;;;;;;;;;;;;;;;;1044030;28;20577;-79
2023/01/29 00:10:18;;;;;;;;;;;;;;;;;;1043977;28;19912;-79
2023/01/29 00:10:49;;;;;;;;;;;;;;;;;;1039512;28;19909;-79
2023/01/29 00:11:20;;;;;;;;;;;;;;;;;;1039588;28;19909;-79
2023/01/29 00:11:51;;;;;;;;;;;;;;;;;;1039338;28;19913;-79
2023/01/29 00:12:22;;;;;;;;;;;;;;;;;;1039548;28;19916;-78
2023/01/29 00:12:53;;;;;;;;;;;;;;;;;;1039524;28;19937;-78
2023/01/29 00:13:24;;;;;;;;;;;;;;;;;;1039572;28;20668;-79
2023/01/29 00:13:55;;;;;;;;;;;;;;;;;;1039239;28;19913;-79
2023/01/29 00:14:26;;;;;;;;;;;;;;;;;;1039447;28;19909;-79
2023/01/29 00:14:57;;;;;;;;;;;;;;;;;;1035562;28;19910;-79
2023/01/29 00:15:28;;;;;;;;;;;;;;;;;;1035964;28;19906;-78
2023/01/29 00:15:59;;;;;;;;;;;;;;;;;;1039604;28;19909;-78
2023/01/29 00:16:29;;;;;;;;;;;;;;;;;;1041624;28;20004;-79
2023/01/29 00:17:00;;;;;;;;;;;;;;;;;;1043435;28;19916;-79
2023/01/29 00:17:31;;;;;;;;;;;;;;;;;;1042148;28;19909;-80
2023/01/29 00:18:02;;;;;;;;;;;;;;;;;;1039442;28;20691;-78
2023/01/29 00:18:33;;;;;;;;;;;;;;;;;;1039614;28;19913;-79
2023/01/29 00:19:04;;;;;;;;;;;;;;;;;;1039423;28;20392;-78
2023/01/29 00:19:35;;;;;;;;;;;;;;;;;;1039699;28;19905;-79
2023/01/29 00:20:05;;;;;;;;;;;;;;;;;;1043716;28;19958;-79
2023/01/29 00:20:36;;;;;;;;;;;;;;;;;;1044101;28;19909;-79
2023/01/29 00:21:07;;;;;;;;;;;;;;;;;;1039258;28;19988;-79
2023/01/29 00:21:38;;;;;;;;;;;;;;;;;;1035291;28;20401;-79
2023/01/29 00:22:09;;;;;;;;;;;;;;;;;;1035337;28;19909;-79
2023/01/29 00:22:40;;;;;;;;;;;;;;;;;;1031635;28;19980;-79
2023/01/29 00:23:11;;;;;;;;;;;;;;;;;;1035776;28;20319;-79
2023/01/29 00:23:42;;;;;;;;;;;;;;;;;;1039703;28;19916;-79
2023/01/29 00:24:12;;;;;;;;;;;;;;;;;;1039494;28;20327;-79
2023/01/29 00:24:43;;;;;;;;;;;;;;;;;;1039601;28;19909;-79
2023/01/29 00:25:14;;;;;;;;;;;;;;;;;;1039387;28;19951;-79
2023/01/29 00:25:45;;;;;;;;;;;;;;;;;;1039518;28;19941;-78
2023/01/29 00:26:16;;;;;;;;;;;;;;;;;;1039537;28;19949;-79
2023/01/29 00:26:48;;;;;;;;;;;;;;;;;;1043995;28;19916;-79
2023/01/29 00:27:19;;;;;;;;;;;;;;;;;;1044021;28;20368;-79
2023/01/29 00:27:50;;;;;;;;;;;;;;;;;;1039313;28;20444;-80
2023/01/29 00:28:21;;;;;;;;;;;;;;;;;;1035165;28;19949;-78
2023/01/29 00:28:52;;;;;;;;;;;;;;;;;;1035569;28;19933;-78
2023/01/29 00:29:23;;;;;;;;;;;;;;;;;;1031167;28;19960;-79
2023/01/29 00:30:11;;;;;;;;;;;;;;;;;;1035885;28;19905;-79
2023/01/29 00:30:42;;;;;;;;;;;;;;;;;;1039265;28;19909;-80
2023/01/29 00:31:13;;;;;;;;;;;;;;;;;;1042291;28;19913;-79
2023/01/29 00:31:44;;;;;;;;;;;;;;;;;;1038955;28;19909;-79
2023/01/29 00:32:15;;;;;;;;;;;;;;;;;;1039343;28;19992;-79
2023/01/29 00:32:46;;;;;;;;;;;;;;;;;;1039080;28;19913;-78
2023/01/29 00:33:17;;;;;;;;;;;;;;;;;;1039975;28;20430;-79
2023/01/29 00:33:47;;;;;;;;;;;;;;;;;;1039136;28;19909;-78
2023/01/29 00:34:18;;;;;;;;;;;;;;;;;;1039562;28;19948;-79
2023/01/29 00:34:49;;;;;;;;;;;;;;;;;;1039105;28;19909;-79
2023/01/29 00:35:20;;;;;;;;;;;;;;;;;;1039897;28;19915;-79
2023/01/29 00:35:51;;;;;;;;;;;;;;;;;;1043731;28;20528;-78
2023/01/29 00:36:22;;;;;;;;;;;;;;;;;;1039212;28;19912;-79
2023/01/29 00:37:03;;;;;;;;;;;;;;;;;;1039526;28;20683;-79
2023/01/29 00:37:34;;;;;;;;;;;;;;;;;;1035109;28;19964;-78
2023/01/29 00:38:05;;;;;;;;;;;;;;;;;;1036580;28;19964;-78
2023/01/29 00:38:36;;;;;;;;;;;;;;;;;;1035482;28;19909;-79
2023/01/29 00:39:09;;;;;;;;;;;;;;;;;;1035238;28;20001;-79
2023/01/29 00:39:40;;;;;;;;;;;;;;;;;;1036606;28;19940;-78
2023/01/29 00:40:11;;;;;;;;;;;;;;;;;;1035227;28;19914;-78
2023/01/29 00:45:00;;;;;;;;;;;;;;;;;;1031709;28;20297;-79
2023/01/29 00:45:31;;;;;;;;;;;;;;;;;;1030483;28;20449;-80
2023/01/29 00:46:02;;;;;;;;;;;;;;;;;;1034605;28;19913;-78
2023/01/29 00:46:33;;;;;;;;;;;;;;;;;;1041399;28;20027;-79
2023/01/29 00:47:29;;;;;;;;;;;;;;;;;;1039742;28;19913;-79
2023/01/29 00:47:55;;;;;;;;;;;;;;;;;;1043331;28;20617;-78
2023/01/29 00:48:26;;;;;;;;;;;;;;;;;;1042722;28;20045;-79
2023/01/29 00:48:57;;;;;;;;;;;;;;;;;;1046836;28;19919;-78
2023/01/29 00:49:29;;;;;;;;;;;;;;;;;;1042764;28;20527;-78
2023/01/29 00:50:00;;;;;;;;;;;;;;;;;;1043380;28;20367;-79
2023/01/29 00:50:31;;;;;;;;;;;;;;;;;;1046964;28;19977;-79
2023/01/29 00:51:02;;;;;;;;;;;;;;;;;;1048047;28;19912;-78
2023/01/29 00:51:32;;;;;;;;;;;;;;;;;;1045679;28;19912;-80
2023/01/29 00:52:53;;;;;;;;;;;;;;;;;;1039226;28;20490;-78
2023/01/29 00:53:24;;;;;;;;;;;;;;;;;;1044245;28;20022;-78
2023/01/29 00:53:57;;;;;;;;;;;;;;;;;;1047340;28;20031;-78
2023/01/29 00:54:28;;;;;;;;;;;;;;;;;;1043195;28;20056;-79
2023/01/29 00:54:58;;;;;;;;;;;;;;;;;;1043334;28;19913;-77
2023/01/29 00:55:29;;;;;;;;;;;;;;;;;;1043010;28;19947;-77
2023/01/29 00:56:00;;;;;;;;;;;;;;;;;;1039192;28;19916;-78
2023/01/29 00:56:31;;;;;;;;;;;;;;;;;;1039269;28;19913;-77
2023/01/29 00:57:02;;;;;;;;;;;;;;;;;;1043387;28;19920;-77
2023/01/29 00:57:33;;;;;;;;;;;;;;;;;;1043396;28;19920;-79
2023/01/29 00:58:04;;;;;;;;;;;;;;;;;;1047721;28;19913;-79
2023/01/29 00:58:34;;;;;;;;;;;;;;;;;;1047538;28;19991;-77
2023/01/29 00:59:05;;;;;;;;;;;;;;;;;;1047654;28;19920;-78
2023/01/29 00:59:36;;;;;;;;;;;;;;;;;;1042767;28;20352;-78
2023/01/29 01:00:07;;;;;;;;;;;;;;;;;;1042946;28;19948;-78
2023/01/29 01:00:38;;;;;;;;;;;;;;;;;;1043198;28;19992;-79
2023/01/29 01:01:09;;;;;;;;;;;;;;;;;;1043055;28;19939;-78
2023/01/29 01:03:20;;;;;;;;;;;;;;;;;;1047720;28;19912;-79
2023/01/29 01:03:51;;;;;;;;;;;;;;;;;;1047799;28;19909;-78
2023/01/29 01:04:21;;;;;;;;;;;;;;;;;;1043090;28;19909;-78
2023/01/29 01:04:52;;;;;;;;;;;;;;;;;;1043456;28;19909;-78
2023/01/29 01:05:23;;;;;;;;;;;;;;;;;;1042970;28;19988;-78
2023/01/29 01:05:54;;;;;;;;;;;;;;;;;;1043550;28;19909;-79
2023/01/29 01:06:25;;;;;;;;;;;;;;;;;;1043197;28;20402;-78
2023/01/29 01:06:56;;;;;;;;;;;;;;;;;;1039465;28;20008;-78
2023/01/29 01:07:27;;;;;;;;;;;;;;;;;;1039090;28;20392;-78
2023/01/29 01:07:57;;;;;;;;;;;;;;;;;;1043608;28;19939;-78
2023/01/29 01:10:20;;;;;;;;;;;;;;;;;;1044665;28;20424;-78
2023/01/29 01:10:51;;;;;;;;;;;;;;;;;;1043165;28;19909;-77
2023/01/29 01:11:22;;;;;;;;;;;;;;;;;;1043046;28;19917;-78
2023/01/29 01:11:52;;;;;;;;;;;;;;;;;;1043113;28;19916;-78
2023/01/29 01:12:23;;;;;;;;;;;;;;;;;;1043077;28;19995;-78
2023/01/29 01:12:54;;;;;;;;;;;;;;;;;;1043709;28;19916;-78
2023/01/29 01:13:25;;;;;;;;;;;;;;;;;;1039249;28;19909;-78
2023/01/29 01:14:00;;;;;;;;;;;;;;;;;;1043428;28;19909;-78
2023/01/29 01:14:33;;;;;;;;;;;;;;;;;;1043318;28;19908;-79
2023/01/29 01:15:04;;;;;;;;;;;;;;;;;;1039292;28;19905;-78
2023/01/29 01:15:35;;;;;;;;;;;;;;;;;;1040272;28;19910;-78
2023/01/29 01:16:06;;;;;;;;;;;;;;;;;;1043363;28;19976;-78
2023/01/29 01:16:37;;;;;;;;;;;;;;;;;;1042300;28;19916;-77
2023/01/29 01:17:08;;;;;;;;;;;;;;;;;;1047784;28;19942;-79
2023/01/29 01:17:39;;;;;;;;;;;;;;;;;;1044948;28;20252;-79
2023/01/29 01:18:09;;;;;;;;;;;;;;;;;;1043640;28;19909;-77
2023/01/29 01:18:40;;;;;;;;;;;;;;;;;;1047722;28;19915;-78
2023/01/29 01:19:11;;;;;;;;;;;;;;;;;;1043233;28;20400;-77
2023/01/29 01:19:42;;;;;;;;;;;;;;;;;;1043123;28;19909;-78
2023/01/29 01:20:13;;;;;;;;;;;;;;;;;;1042993;28;19909;-78
2023/01/29 01:20:44;;;;;;;;;;;;;;;;;;1043215;28;20395;-77
2023/01/29 01:21:15;;;;;;;;;;;;;;;;;;1043000;28;19904;-77
2023/01/29 01:21:47;;;;;;;;;;;;;;;;;;1043167;28;20015;-77
2023/01/29 01:22:18;;;;;;;;;;;;;;;;;;1043042;28;19928;-78
2023/01/29 01:22:48;;;;;;;;;;;;;;;;;;1041471;28;19940;-78
2023/01/29 01:23:19;;;;;;;;;;;;;;;;;;1035175;28;19968;-78
2023/01/29 01:23:50;;;;;;;;;;;;;;;;;;1039177;28;19992;-78
2023/01/29 01:24:22;;;;;;;;;;;;;;;;;;1041569;28;19942;-77
2023/01/29 01:24:53;;;;;;;;;;;;;;;;;;1043545;28;19909;-78
2023/01/29 01:25:24;;;;;;;;;;;;;;;;;;1042932;28;19915;-77
2023/01/29 01:25:55;;;;;;;;;;;;;;;;;;1039456;28;20016;-78
2023/01/29 01:26:26;;;;;;;;;;;;;;;;;;1043042;28;19916;-78
2023/01/29 01:26:56;;;;;;;;;;;;;;;;;;1043491;28;19915;-78
2023/01/29 01:27:27;;;;;;;;;;;;;;;;;;1043106;28;19905;-77
2023/01/29 01:27:58;;;;;;;;;;;;;;;;;;1043405;28;19951;-79
2023/01/29 01:28:29;;;;;;;;;;;;;;;;;;1042719;28;19909;-78
2023/01/29 01:29:00;;;;;;;;;;;;;;;;;;1043344;28;19932;-79
2023/01/29 01:29:31;;;;;;;;;;;;;;;;;;1042456;28;20369;-77
2023/01/29 01:30:02;;;;;;;;;;;;;;;;;;1046364;28;19940;-78
2023/01/29 01:30:33;;;;;;;;;;;;;;;;;;1042815;28;20612;-77
2023/01/29 01:31:04;;;;;;;;;;;;;;;;;;1042738;28;19908;-78
2023/01/29 01:31:35;;;;;;;;;;;;;;;;;;1038559;28;19957;-78
2023/01/29 01:32:08;;;;;;;;;;;;;;;;;;1038762;28;19909;-77
2023/01/29 01:32:39;;;;;;;;;;;;;;;;;;1038755;28;19914;-77
2023/01/29 01:33:10;;;;;;;;;;;;;;;;;;1031756;28;19916;-77
2023/01/29 01:33:41;;;;;;;;;;;;;;;;;;1035237;28;19916;-79
2023/01/29 01:34:12;;;;;;;;;;;;;;;;;;1040196;28;20369;-79
2023/01/29 01:34:46;;;;;;;;;;;;;;;;;;1042844;28;20542;-79
2023/01/29 01:35:17;;;;;;;;;;;;;;;;;;1044078;28;19905;-78
2023/01/29 01:35:48;;;;;;;;;;;;;;;;;;1047486;28;19908;-80
2023/01/29 01:36:19;;;;;;;;;;;;;;;;;;1043247;28;20461;-79
2023/01/29 01:36:49;;;;;;;;;;;;;;;;;;1043114;28;19916;-79
2023/01/29 01:37:20;;;;;;;;;;;;;;;;;;1039429;28;19936;-80
2023/01/29 01:37:51;;;;;;;;;;;;;;;;;;1034979;28;20570;-79
2023/01/29 01:38:22;;;;;;;;;;;;;;;;;;1039019;28;20541;-79
2023/01/29 01:38:53;;;;;;;;;;;;;;;;;;1038637;28;19905;-79
2023/01/29 01:39:24;;;;;;;;;;;;;;;;;;1038950;28;19916;-80
2023/01/29 01:39:57;;;;;;;;;;;;;;;;;;1033339;28;19926;-79
2023/01/29 01:40:28;;;;;;;;;;;;;;;;;;1035542;28;19995;-78
2023/01/29 01:40:59;;;;;;;;;;;;;;;;;;1039062;28;19950;-78
2023/01/29 01:41:30;;;;;;;;;;;;;;;;;;1039602;28;20388;-80
2023/01/29 01:42:00;;;;;;;;;;;;;;;;;;1043134;28;19913;-79
2023/01/29 01:42:33;;;;;;;;;;;;;;;;;;1042601;28;20401;-79
2023/01/29 01:43:04;;;;;;;;;;;;;;;;;;1043128;28;20319;-78
2023/01/29 01:43:35;;;;;;;;;;;;;;;;;;1043393;28;19913;-79
2023/01/29 01:44:06;;;;;;;;;;;;;;;;;;1043557;28;19913;-79
2023/01/29 01:44:37;;;;;;;;;;;;;;;;;;1038906;28;19917;-79
2023/01/29 01:45:09;;;;;;;;;;;;;;;;;;1038927;28;20067;-80
2023/01/29 01:45:41;;;;;;;;;;;;;;;;;;1038922;28;20470;-79
2023/01/29 01:46:12;;;;;;;;;;;;;;;;;;1039101;28;20422;-80
2023/01/29 01:46:43;;;;;;;;;;;;;;;;;;1039096;28;20352;-79
2023/01/29 01:47:14;;;;;;;;;;;;;;;;;;1038451;28;19919;-80
2023/01/29 01:47:45;;;;;;;;;;;;;;;;;;1038990;28;20055;-79
2023/01/29 01:48:16;;;;;;;;;;;;;;;;;;1038791;28;19971;-79
2023/01/29 01:48:47;;;;;;;;;;;;;;;;;;1039525;28;20383;-80
2023/01/29 01:49:17;;;;;;;;;;;;;;;;;;1039012;28;19980;-79
2023/01/29 01:49:48;;;;;;;;;;;;;;;;;;1039109;28;19921;-77
2023/01/29 01:50:19;;;;;;;;;;;;;;;;;;1038534;28;19948;-77
2023/01/29 01:50:50;;;;;;;;;;;;;;;;;;1039294;28;20003;-76
2023/01/29 01:51:21;;;;;;;;;;;;;;;;;;1039236;28;19967;-77
2023/01/29 01:51:52;;;;;;;;;;;;;;;;;;1039294;28;20705;-78
2023/01/29 01:52:23;;;;;;;;;;;;;;;;;;1038789;28;19968;-77
2023/01/29 01:52:53;;;;;;;;;;;;;;;;;;1039349;28;20287;-78
2023/01/29 01:53:25;;;;;;;;;;;;;;;;;;1039364;28;19917;-78
2023/01/29 01:53:55;;;;;;;;;;;;;;;;;;1043621;28;19912;-78
2023/01/29 01:54:26;;;;;;;;;;;;;;;;;;1038906;28;19913;-77
2023/01/29 01:54:57;;;;;;;;;;;;;;;;;;1039453;28;19959;-78
2023/01/29 01:55:28;;;;;;;;;;;;;;;;;;1038860;28;20003;-78
2023/01/29 01:55:59;;;;;;;;;;;;;;;;;;1039494;28;19975;-78
2023/01/29 01:56:37;;;;;;;;;;;;;;;;;;1039042;28;19992;-78
2023/01/29 01:57:14;;;;;;;;;;;;;;;;;;1039295;28;19913;-78
2023/01/29 01:57:45;;;;;;;;;;;;;;;;;;1037593;28;20600;-78
2023/01/29 01:58:16;;;;;;;;;;;;;;;;;;1036078;28;20380;-77
2023/01/29 01:58:49;;;;;;;;;;;;;;;;;;1036003;28;19914;-78
2023/01/29 01:59:20;;;;;;;;;;;;;;;;;;1040300;28;19967;-77
2023/01/29 01:59:51;;;;;;;;;;;;;;;;;;1040345;28;19939;-79
2023/01/29 02:00:21;;;;;;;;;;;;;;;;;;1040027;28;19944;-78
2023/01/29 02:00:52;;;;;;;;;;;;;;;;;;1040245;28;19917;-78
2023/01/29 02:01:29;;;;;;;;;;;;;;;;;;1039905;28;19980;-79
2023/01/29 02:09:37;;;;;;;;;;;;;;;;;;1044307;28;19935;-77
2023/01/29 02:10:08;;;;;;;;;;;;;;;;;;1040073;28;19905;-78
2023/01/29 02:10:39;;;;;;;;;;;;;;;;;;1040076;28;19905;-78
2023/01/29 02:11:10;;;;;;;;;;;;;;;;;;1040214;28;20395;-78
2023/01/29 02:11:41;;;;;;;;;;;;;;;;;;1039709;28;19916;-78
2023/01/29 02:12:11;;;;;;;;;;;;;;;;;;1039846;28;19935;-78
2023/01/29 02:12:42;;;;;;;;;;;;;;;;;;1039761;28;20396;-78
2023/01/29 02:13:15;;;;;;;;;;;;;;;;;;1040072;28;19905;-78
2023/01/29 02:13:46;;;;;;;;;;;;;;;;;;1035792;28;19913;-78
2023/01/29 02:14:17;;;;;;;;;;;;;;;;;;1040615;28;19962;-78
2023/01/29 02:14:48;;;;;;;;;;;;;;;;;;1044427;28;19909;-79
2023/01/29 02:15:19;;;;;;;;;;;;;;;;;;1044680;28;19909;-78
2023/01/29 02:15:49;;;;;;;;;;;;;;;;;;1039467;28;19999;-79
2023/01/29 02:16:20;;;;;;;;;;;;;;;;;;1040905;28;19909;-78
2023/01/29 02:16:51;;;;;;;;;;;;;;;;;;1039659;28;20004;-79
2023/01/29 02:17:22;;;;;;;;;;;;;;;;;;1036595;28;19910;-77
2023/01/29 02:17:53;;;;;;;;;;;;;;;;;;1035668;28;20386;-77
2023/01/29 02:18:24;;;;;;;;;;;;;;;;;;1035864;28;19909;-78
2023/01/29 02:18:55;;;;;;;;;;;;;;;;;;1037739;28;20047;-78
2023/01/29 02:19:26;;;;;;;;;;;;;;;;;;1035706;28;20572;-78
2023/01/29 02:19:57;;;;;;;;;;;;;;;;;;1035809;28;20560;-78
2023/01/29 02:20:27;;;;;;;;;;;;;;;;;;1036758;28;19918;-78
2023/01/29 02:20:58;;;;;;;;;;;;;;;;;;1039881;28;20019;-79
2023/01/29 02:21:29;;;;;;;;;;;;;;;;;;1039709;28;19985;-78
2023/01/29 02:22:00;;;;;;;;;;;;;;;;;;1031800;28;20009;-78
2023/01/29 02:22:31;;;;;;;;;;;;;;;;;;1035381;28;19982;-79
2023/01/29 02:23:02;;;;;;;;;;;;;;;;;;1039870;28;19920;-77
2023/01/29 02:23:33;;;;;;;;;;;;;;;;;;1039849;28;20003;-78
2023/01/29 02:24:03;;;;;;;;;;;;;;;;;;1039919;28;20665;-78
2023/01/29 02:24:34;;;;;;;;;;;;;;;;;;1039933;28;20571;-78
2023/01/29 02:25:08;;;;;;;;;;;;;;;;;;1039968;28;19913;-78
2023/01/29 02:25:39;;;;;;;;;;;;;;;;;;1040413;28;20581;-78
2023/01/29 02:26:10;;;;;;;;;;;;;;;;;;1041977;28;19913;-78
2023/01/29 02:26:41;;;;;;;;;;;;;;;;;;1040123;28;19909;-79
2023/01/29 02:27:12;;;;;;;;;;;;;;;;;;1040223;28;19931;-78
2023/01/29 02:27:43;;;;;;;;;;;;;;;;;;1039823;28;20364;-78
2023/01/29 02:28:14;;;;;;;;;;;;;;;;;;1039637;28;19913;-79
2023/01/29 02:28:47;;;;;;;;;;;;;;;;;;1039880;28;19920;-79
2023/01/29 02:29:21;;;;;;;;;;;;;;;;;;1039973;28;19917;-79
2023/01/29 02:29:52;;;;;;;;;;;;;;;;;;1041285;28;19917;-78
2023/01/29 02:30:23;;;;;;;;;;;;;;;;;;1044159;28;20205;-78
2023/01/29 02:30:54;;;;;;;;;;;;;;;;;;1040148;28;20289;-79
2023/01/29 02:31:25;;;;;;;;;;;;;;;;;;1039517;28;19909;-78
2023/01/29 02:31:55;;;;;;;;;;;;;;;;;;1039797;28;19920;-78
2023/01/29 02:32:26;;;;;;;;;;;;;;;;;;1035705;28;19967;-78
2023/01/29 02:32:57;;;;;;;;;;;;;;;;;;1039963;28;20281;-79
2023/01/29 02:33:28;;;;;;;;;;;;;;;;;;1039213;28;19909;-79
2023/01/29 02:33:59;;;;;;;;;;;;;;;;;;1036098;28;19916;-79
2023/01/29 02:34:30;;;;;;;;;;;;;;;;;;1035708;28;19921;-78
2023/01/29 02:35:50;;;;;;;;;;;;;;;;;;1039348;28;20781;-78
2023/01/29 02:36:21;;;;;;;;;;;;;;;;;;1037302;28;19913;-78
2023/01/29 02:36:52;;;;;;;;;;;;;;;;;;1038705;28;19909;-78
2023/01/29 02:37:22;;;;;;;;;;;;;;;;;;1043829;28;20399;-78
2023/01/29 02:37:53;;;;;;;;;;;;;;;;;;1043900;28;19913;-78
2023/01/29 02:38:25;;;;;;;;;;;;;;;;;;1043873;28;20005;-79
2023/01/29 02:38:56;;;;;;;;;;;;;;;;;;1043925;28;20591;-79
2023/01/29 02:39:27;;;;;;;;;;;;;;;;;;1044420;28;20474;-78
2023/01/29 02:39:58;;;;;;;;;;;;;;;;;;1043963;28;19995;-78
2023/01/29 02:40:30;;;;;;;;;;;;;;;;;;1044023;28;19917;-78
2023/01/29 02:41:01;;;;;;;;;;;;;;;;;;1039489;28;19909;-79
2023/01/29 02:41:31;;;;;;;;;;;;;;;;;;1040310;28;19960;-78
2023/01/29 02:42:02;;;;;;;;;;;;;;;;;;1044075;28;19976;-77
2023/01/29 02:42:34;;;;;;;;;;;;;;;;;;1043875;28;20007;-78
2023/01/29 02:43:05;;;;;;;;;;;;;;;;;;1043884;28;20550;-78
2023/01/29 02:43:37;;;;;;;;;;;;;;;;;;1039692;28;20373;-78
2023/01/29 02:44:08;;;;;;;;;;;;;;;;;;1042706;28;19925;-78
2023/01/29 02:44:39;;;;;;;;;;;;;;;;;;1044089;28;19921;-78
2023/01/29 02:45:10;;;;;;;;;;;;;;;;;;1044163;28;20010;-78
2023/01/29 02:45:41;;;;;;;;;;;;;;;;;;1043834;28;19913;-78
2023/01/29 02:46:12;;;;;;;;;;;;;;;;;;1043803;28;19909;-78
2023/01/29 02:46:43;;;;;;;;;;;;;;;;;;1043839;28;19958;-77
2023/01/29 02:47:14;;;;;;;;;;;;;;;;;;1039704;28;20430;-78
2023/01/29 02:47:45;;;;;;;;;;;;;;;;;;1039519;28;20368;-78
2023/01/29 02:48:16;;;;;;;;;;;;;;;;;;1039567;28;19919;-77
2023/01/29 02:48:46;;;;;;;;;;;;;;;;;;1036056;28;19921;-78
2023/01/29 02:49:17;;;;;;;;;;;;;;;;;;1039576;28;20344;-77
2023/01/29 02:49:48;;;;;;;;;;;;;;;;;;1043130;28;19992;-78
2023/01/29 02:50:19;;;;;;;;;;;;;;;;;;1044231;28;19909;-78
2023/01/29 02:50:50;;;;;;;;;;;;;;;;;;1043873;28;19951;-78
2023/01/29 02:51:21;;;;;;;;;;;;;;;;;;1043804;28;20417;-78
2023/01/29 02:51:52;;;;;;;;;;;;;;;;;;1043974;28;19909;-78
2023/01/29 02:52:22;;;;;;;;;;;;;;;;;;1044005;28;20326;-78
2023/01/29 02:52:55;;;;;;;;;;;;;;;;;;1047841;28;19948;-78
2023/01/29 02:53:26;;;;;;;;;;;;;;;;;;1043917;28;19920;-78
2023/01/29 02:53:59;;;;;;;;;;;;;;;;;;1043852;28;19940;-78
2023/01/29 02:54:31;;;;;;;;;;;;;;;;;;1039529;28;19952;-79
2023/01/29 02:55:03;;;;;;;;;;;;;;;;;;1048391;28;19919;-78
2023/01/29 02:55:34;;;;;;;;;;;;;;;;;;1047870;28;20367;-78
2023/01/29 02:56:05;;;;;;;;;;;;;;;;;;1044643;28;20403;-78
2023/01/29 02:56:36;;;;;;;;;;;;;;;;;;1044472;28;19920;-78
2023/01/29 02:57:07;;;;;;;;;;;;;;;;;;1044263;28;20362;-78
2023/01/29 02:57:38;;;;;;;;;;;;;;;;;;1043773;28;19921;-78
2023/01/29 02:58:09;;;;;;;;;;;;;;;;;;1040236;28;20627;-78
2023/01/29 02:58:40;;;;;;;;;;;;;;;;;;1043833;28;20521;-77
2023/01/29 02:59:11;;;;;;;;;;;;;;;;;;1040065;28;20500;-78
2023/01/29 02:59:42;;;;;;;;;;;;;;;;;;1039495;28;19917;-78
2023/01/29 03:00:13;;;;;;;;;;;;;;;;;;1040066;28;19992;-77
2023/01/29 03:00:43;;;;;;;;;;;;;;;;;;1039601;28;20621;-78
2023/01/29 03:01:14;;;;;;;;;;;;;;;;;;1039990;28;19917;-77
2023/01/29 03:01:45;;;;;;;;;;;;;;;;;;1039043;28;19979;-78
2023/01/29 03:02:16;;;;;;;;;;;;;;;;;;1036085;28;19913;-78
2023/01/29 03:02:47;;;;;;;;;;;;;;;;;;1039652;28;19909;-78
2023/01/29 03:03:18;;;;;;;;;;;;;;;;;;1040066;28;20693;-79
2023/01/29 03:03:49;;;;;;;;;;;;;;;;;;1043534;28;19916;-78
2023/01/29 03:04:20;;;;;;;;;;;;;;;;;;1039839;28;20558;-78
2023/01/29 03:04:51;;;;;;;;;;;;;;;;;;1040034;28;19916;-79
2023/01/29 03:05:21;;;;;;;;;;;;;;;;;;1040100;28;20343;-78
2023/01/29 03:05:53;;;;;;;;;;;;;;;;;;1044084;28;19913;-78
2023/01/29 03:06:27;;;;;;;;;;;;;;;;;;1044030;28;19935;-78
2023/01/29 03:06:58;;;;;;;;;;;;;;;;;;1043940;28;19919;-78
2023/01/29 03:07:44;;;;;;;;;;;;;;;;;;1043810;28;19920;-78
2023/01/29 03:08:16;;;;;;;;;;;;;;;;;;1040796;28;19920;-78
2023/01/29 03:08:48;;;;;;;;;;;;;;;;;;1043385;28;19913;-78
2023/01/29 03:09:19;;;;;;;;;;;;;;;;;;1043264;28;19908;-79
2023/01/29 03:09:50;;;;;;;;;;;;;;;;;;1043847;28;19913;-78
2023/01/29 03:10:21;;;;;;;;;;;;;;;;;;1044196;28;19931;-77
2023/01/29 03:10:52;;;;;;;;;;;;;;;;;;1044116;28;19936;-78
2023/01/29 03:11:23;;;;;;;;;;;;;;;;;;1043401;28;19935;-78
2023/01/29 03:11:54;;;;;;;;;;;;;;;;;;1043949;28;19986;-79
2023/01/29 03:12:35;;;;;;;;;;;;;;;;;;1043653;28;19917;-79
2023/01/29 03:13:06;;;;;;;;;;;;;;;;;;1044351;28;20425;-78
2023/01/29 03:13:37;;;;;;;;;;;;;;;;;;1043408;28;20519;-79
2023/01/29 03:14:09;;;;;;;;;;;;;;;;;;1045752;28;19920;-78
2023/01/29 03:15:29;;;;;;;;;;;;;;;;;;1044048;28;19924;-78
2023/01/29 03:16:00;;;;;;;;;;;;;;;;;;1039763;28;19913;-78
2023/01/29 03:16:31;;;;;;;;;;;;;;;;;;1041600;28;19920;-77
2023/01/29 03:17:02;;;;;;;;;;;;;;;;;;1039682;28;19917;-78
2023/01/29 03:17:33;;;;;;;;;;;;;;;;;;1035437;28;19919;-78
2023/01/29 03:18:04;;;;;;;;;;;;;;;;;;1035804;28;19952;-78
2023/01/29 03:18:35;;;;;;;;;;;;;;;;;;1041868;28;20300;-78
2023/01/29 03:19:06;;;;;;;;;;;;;;;;;;1048126;28;19917;-78
2023/01/29 03:19:37;;;;;;;;;;;;;;;;;;1048052;28;19935;-78
2023/01/29 03:20:08;;;;;;;;;;;;;;;;;;1051495;28;19916;-78
2023/01/29 03:20:39;;;;;;;;;;;;;;;;;;1043672;28;19917;-78
2023/01/29 03:21:49;;;;;;;;;;;;;;;;;;1043590;28;20019;-77
2023/01/29 03:22:00;;;;;;;;;;;;;;;;;;1043551;28;19958;-77
2023/01/29 03:22:31;;;;;;;;;;;;;;;;;;1043590;28;19947;-78
2023/01/29 03:23:02;;;;;;;;;;;;;;;;;;1042591;28;20074;-78
2023/01/29 03:32:08;;;;;;;;;;;;;;;;;;1044172;28;19976;-79
2023/01/29 03:32:39;;;;;;;;;;;;;;;;;;1041717;28;20261;-78
2023/01/29 03:33:10;;;;;;;;;;;;;;;;;;1039719;28;20459;-78
2023/01/29 03:33:40;;;;;;;;;;;;;;;;;;1039458;28;19913;-78
2023/01/29 03:34:15;;;;;;;;;;;;;;;;;;1039945;28;19912;-78
2023/01/29 03:34:46;;;;;;;;;;;;;;;;;;1039515;28;19924;-78
2023/01/29 03:35:19;;;;;;;;;;;;;;;;;;1040563;28;20018;-78
2023/01/29 03:35:51;;;;;;;;;;;;;;;;;;1043724;28;19913;-78
2023/01/29 03:36:22;;;;;;;;;;;;;;;;;;1044400;28;19912;-78
2023/01/29 03:36:54;;;;;;;;;;;;;;;;;;1043642;28;20341;-79
2023/01/29 03:37:25;;;;;;;;;;;;;;;;;;1039239;28;19983;-78
2023/01/29 03:37:56;;;;;;;;;;;;;;;;;;1039571;28;19913;-78
2023/01/29 03:38:28;;;;;;;;;;;;;;;;;;1039918;28;19909;-78
2023/01/29 03:38:59;;;;;;;;;;;;;;;;;;1044086;28;19913;-78
2023/01/29 03:39:30;;;;;;;;;;;;;;;;;;1043403;28;19999;-77
2023/01/29 03:40:01;;;;;;;;;;;;;;;;;;1043735;28;19905;-78
2023/01/29 03:40:32;;;;;;;;;;;;;;;;;;1043426;28;20003;-77
2023/01/29 03:41:03;;;;;;;;;;;;;;;;;;1043643;28;20049;-78
2023/01/29 03:41:34;;;;;;;;;;;;;;;;;;1048127;28;19915;-78
2023/01/29 03:42:04;;;;;;;;;;;;;;;;;;1048090;28;20416;-78
2023/01/29 03:42:35;;;;;;;;;;;;;;;;;;1043731;28;19912;-78
2023/01/29 03:43:06;;;;;;;;;;;;;;;;;;1043493;28;20388;-77
2023/01/29 03:43:37;;;;;;;;;;;;;;;;;;1043670;28;19967;-77
2023/01/29 03:44:08;;;;;;;;;;;;;;;;;;1043666;28;19920;-77
2023/01/29 03:44:39;;;;;;;;;;;;;;;;;;1048425;28;19912;-78
2023/01/29 03:45:10;;;;;;;;;;;;;;;;;;1048184;28;19919;-80
2023/01/29 03:45:41;;;;;;;;;;;;;;;;;;1043421;28;20177;-77
2023/01/29 03:46:17;;;;;;;;;;;;;;;;;;1043737;28;20669;-77
2023/01/29 03:46:48;;;;;;;;;;;;;;;;;;1043843;28;19952;-77
2023/01/29 03:47:19;;;;;;;;;;;;;;;;;;1043471;28;20371;-77
2023/01/29 03:47:50;;;;;;;;;;;;;;;;;;1043682;28;19913;-78
2023/01/29 03:48:21;;;;;;;;;;;;;;;;;;1039564;28;20384;-79
2023/01/29 03:48:52;;;;;;;;;;;;;;;;;;1043856;28;19913;-80
2023/01/29 03:49:23;;;;;;;;;;;;;;;;;;1043563;28;19982;-78
2023/01/29 03:49:54;;;;;;;;;;;;;;;;;;1043884;28;19912;-78
2023/01/29 03:50:24;;;;;;;;;;;;;;;;;;1043730;28;20016;-78
2023/01/29 03:50:55;;;;;;;;;;;;;;;;;;1048464;28;19978;-78
2023/01/29 03:51:26;;;;;;;;;;;;;;;;;;1043352;28;19999;-78
2023/01/29 03:51:57;;;;;;;;;;;;;;;;;;1043792;28;19942;-78
2023/01/29 03:52:28;;;;;;;;;;;;;;;;;;1039013;28;20628;-78
2023/01/29 03:52:59;;;;;;;;;;;;;;;;;;1039641;28;19913;-79
2023/01/29 03:53:30;;;;;;;;;;;;;;;;;;1039118;28;20531;-78
2023/01/29 03:54:01;;;;;;;;;;;;;;;;;;1039758;28;19913;-78
2023/01/29 03:54:32;;;;;;;;;;;;;;;;;;1035521;28;19917;-78
2023/01/29 03:55:05;;;;;;;;;;;;;;;;;;1035602;28;19921;-78
2023/01/29 03:55:36;;;;;;;;;;;;;;;;;;1035627;28;19913;-77
2023/01/29 03:56:07;;;;;;;;;;;;;;;;;;1036069;28;19921;-78
2023/01/29 03:56:38;;;;;;;;;;;;;;;;;;1039930;28;20074;-77
2023/01/29 03:57:14;;;;;;;;;;;;;;;;;;1043659;28;20401;-78
2023/01/29 03:57:45;;;;;;;;;;;;;;;;;;1042069;28;19913;-77
2023/01/29 03:58:16;;;;;;;;;;;;;;;;;;1040367;28;19920;-78
2023/01/29 03:58:46;;;;;;;;;;;;;;;;;;1044459;28;19944;-77
2023/01/29 03:59:17;;;;;;;;;;;;;;;;;;1048068;28;19909;-78
2023/01/29 03:59:48;;;;;;;;;;;;;;;;;;1047650;28;19913;-78
2023/01/29 04:00:20;;;;;;;;;;;;;;;;;;1043612;28;19920;-78